Terminal Aerodrome Forecast
Issued by NWS

Home | Current Version | Previous Version | Graphics & Text | Print | Product List | Glossary On
Versions: 1 2 3 4 5 6 7 8 9 10 11 12 13 14
000
FTUS43 KBIS 180500
TAFDIK
TAF
KDIK 180539Z 1806/1906 13016KT P6SM BKN090 BKN120
     FM181400 13022G28KT P6SM BKN140 BKN250
     FM182100 14024G31KT P6SM VCSH SCT080 BKN110
     FM182300 13014KT P6SM VCSH BKN080 BKN100
     FM190300 29008KT P6SM SCT070=

USA.gov is the U.S. government's official web portal to all federal, state and local government web resources and services.